createdAt,value
2023-04-25T00:01:38.752Z,94740.06
2023-04-25T00:04:07.751Z,94748.94
2023-04-25T00:06:37.220Z,94742.94
2023-04-25T00:09:08.199Z,94741.19
2023-04-25T00:11:37.830Z,94740.56
2023-04-25T00:14:07.682Z,94741.28
2023-04-25T00:16:36.667Z,94748.09
2023-04-25T00:19:05.391Z,94748.88
2023-04-25T00:21:33.617Z,94745.44
2023-04-25T00:24:01.924Z,94748.94
2023-04-25T00:26:29.957Z,94745.50
2023-04-25T00:28:59.358Z,94739.47
2023-04-25T00:31:27.332Z,94730.75
2023-04-25T00:33:55.282Z,94739.00
2023-04-25T00:36:23.392Z,94731.06
2023-04-25T00:38:51.516Z,94732.16
2023-04-25T00:41:20.671Z,94723.28
2023-04-25T00:43:50.584Z,94728.50
2023-04-25T00:46:20.108Z,94722.19
2023-04-25T00:48:48.123Z,94719.50
2023-04-25T00:51:18.770Z,94717.44
2023-04-25T00:53:47.682Z,94719.00
2023-04-25T00:56:16.188Z,94710.13
2023-04-25T00:58:44.672Z,94703.81
2023-04-25T01:01:13.845Z,94703.81
2023-04-25T01:03:44.089Z,94695.94
2023-04-25T01:06:12.912Z,94694.38
2023-04-25T01:08:41.459Z,94696.19
2023-04-25T01:11:09.962Z,94690.19
2023-04-25T01:13:38.273Z,94689.38
2023-04-25T01:16:06.881Z,94677.16
2023-04-25T01:18:35.226Z,94675.09
2023-04-25T01:21:11.612Z,94678.13
2023-04-25T01:23:41.421Z,94677.50
2023-04-25T01:26:11.413Z,94675.84
2023-04-25T01:28:42.309Z,94670.63
2023-04-25T01:31:13.392Z,94699.06
2023-04-25T01:33:41.488Z,94698.22
2023-04-25T01:36:11.351Z,94694.63
2023-04-25T01:38:39.376Z,94680.84
2023-04-25T01:41:07.630Z,94677.66
2023-04-25T01:43:35.753Z,94670.72
2023-04-25T01:46:03.967Z,94678.31
2023-04-25T01:48:31.934Z,94681.78
2023-04-25T01:51:00.256Z,94688.59
2023-04-25T01:53:31.698Z,94679.72
2023-04-25T01:56:04.546Z,94684.50
2023-04-25T01:58:35.862Z,94679.28
2023-04-25T02:01:21.771Z,94674.50
2023-04-25T02:04:05.199Z,94662.00
2023-04-25T02:06:37.228Z,94666.75
2023-04-25T02:09:06.603Z,94657.78
2023-04-25T02:11:34.572Z,94660.38
2023-04-25T02:14:21.017Z,94652.63
2023-04-25T02:16:59.549Z,94644.56
2023-04-25T02:19:27.758Z,94650.56
2023-04-25T02:21:56.124Z,94642.03
2023-04-25T02:24:25.705Z,94638.84
2023-04-25T02:26:53.782Z,94638.84
2023-04-25T02:29:21.764Z,94638.06
2023-04-25T02:31:49.843Z,94638.56
2023-04-25T02:34:18.948Z,94637.75
2023-04-25T02:36:46.893Z,94642.50
2023-04-25T02:39:14.802Z,94644.09
2023-04-25T02:41:44.167Z,94632.59
2023-04-25T02:44:12.145Z,94635.22
2023-04-25T02:46:40.204Z,94636.50
2023-04-25T02:49:08.747Z,94642.41
2023-04-25T02:51:37.356Z,94638.22
2023-04-25T02:54:06.040Z,94635.84
2023-04-25T02:56:38.096Z,94636.00
2023-04-25T02:59:12.196Z,94644.09
2023-04-25T03:01:40.358Z,94644.66
2023-04-25T03:04:08.402Z,94651.31
2023-04-25T03:06:36.470Z,94643.94
2023-04-25T03:09:04.889Z,94653.75
2023-04-25T03:11:33.143Z,94651.88
2023-04-25T03:14:02.592Z,94650.66
2023-04-25T03:16:32.092Z,94666.28
2023-04-25T03:19:00.062Z,94667.09
2023-04-25T03:21:28.533Z,94673.63
2023-04-25T03:23:56.478Z,94672.84
2023-04-25T03:26:24.486Z,94671.13
2023-04-25T03:28:52.520Z,94672.31
2023-04-25T03:31:20.768Z,94668.53
2023-04-25T03:33:50.382Z,94667.94
2023-04-25T03:36:20.690Z,94677.50
2023-04-25T03:38:49.402Z,94670.94
2023-04-25T03:41:18.559Z,94674.78
2023-04-25T03:43:56.442Z,94671.25
2023-04-25T03:46:24.686Z,94681.22
2023-04-25T03:48:54.232Z,94687.13
2023-04-25T03:51:26.796Z,94681.94
2023-04-25T03:53:55.036Z,94679.75
2023-04-25T03:56:22.964Z,94688.59
2023-04-25T03:58:59.058Z,94689.06
2023-04-25T04:01:28.921Z,94689.06
2023-04-25T04:03:58.758Z,94696.28
2023-04-25T04:06:27.801Z,94692.94
2023-04-25T04:09:03.931Z,94704.78
2023-04-25T04:11:35.335Z,94692.47
2023-04-25T04:14:03.567Z,94698.81
2023-04-25T04:16:33.924Z,94701.97
2023-04-25T04:19:04.209Z,94701.53
2023-04-25T04:21:34.502Z,94707.75
2023-04-25T04:24:03.135Z,94705.63
2023-04-25T04:26:35.813Z,94702.75
2023-04-25T04:29:24.229Z,94697.97
2023-04-25T04:32:07.163Z,94702.44
2023-04-25T04:34:37.033Z,94703.47
2023-04-25T04:37:06.119Z,94702.22
2023-04-25T04:39:34.118Z,94703.09
2023-04-25T04:42:12.484Z,94717.00
2023-04-25T04:45:02.634Z,94714.09
2023-04-25T04:47:57.310Z,94708.63
2023-04-25T04:50:57.979Z,94714.94
2023-04-25T04:53:43.952Z,94721.97
2023-04-25T04:56:32.013Z,94731.94
2023-04-25T04:59:18.527Z,94729.25
2023-04-25T05:02:07.392Z,94728.09
2023-04-25T05:05:04.590Z,94736.16
2023-04-25T05:07:55.092Z,94742.66
2023-04-25T05:10:45.779Z,94748.41
2023-04-25T05:13:39.568Z,94755.34
2023-04-25T05:16:20.191Z,94756.16
2023-04-25T05:18:57.682Z,94756.34
2023-04-25T05:21:45.232Z,94758.59
2023-04-25T05:24:40.647Z,94755.84
2023-04-25T05:27:16.037Z,94758.13
2023-04-25T05:30:08.279Z,94762.25
2023-04-25T05:32:54.647Z,94765.78
2023-04-25T05:35:22.873Z,94769.66
2023-04-25T05:37:52.562Z,94769.94
2023-04-25T05:40:26.488Z,94766.53
2023-04-25T05:43:12.278Z,94761.38
2023-04-25T05:45:57.274Z,94766.69
2023-04-25T05:48:38.435Z,94776.25
2023-04-25T05:51:27.026Z,94785.75
2023-04-25T05:54:13.965Z,94781.63
2023-04-25T05:56:43.766Z,94782.75
2023-04-25T05:59:11.719Z,94782.28
2023-04-25T06:01:39.846Z,94777.06
2023-04-25T06:04:07.986Z,94782.28
2023-04-25T06:06:36.498Z,94791.16
2023-04-25T06:09:04.869Z,94779.13
2023-04-25T06:11:33.381Z,94781.38
2023-04-25T06:14:02.678Z,94786.13
2023-04-25T06:16:32.318Z,94782.97
2023-04-25T06:19:00.341Z,94784.53
2023-04-25T06:21:28.464Z,94787.25
2023-04-25T06:23:56.402Z,94786.44
2023-04-25T06:26:25.458Z,94782.81
2023-04-25T06:28:53.941Z,94788.34
2023-04-25T06:31:23.394Z,94792.78
2023-04-25T06:33:55.735Z,94788.25
2023-04-25T06:36:26.881Z,94792.47
2023-04-25T06:38:58.163Z,94795.16
2023-04-25T06:41:26.123Z,94798.34
2023-04-25T06:43:55.267Z,94801.97
2023-04-25T06:46:32.640Z,94804.13
2023-04-25T06:49:01.436Z,94807.88
2023-04-25T06:51:31.050Z,94804.53
2023-04-25T06:53:59.458Z,94807.41
2023-04-25T06:56:32.777Z,94808.34
2023-04-25T06:59:10.875Z,94806.16
2023-04-25T07:01:42.563Z,94802.16
2023-04-25T07:04:16.677Z,94796.00
2023-04-25T07:06:54.651Z,94808.03
2023-04-25T07:09:28.845Z,94805.97
2023-04-25T07:11:57.545Z,94792.97
2023-04-25T07:14:25.462Z,94804.56
2023-04-25T07:16:56.878Z,94809.09
2023-04-25T07:19:27.840Z,94810.00
2023-04-25T07:21:59.192Z,94816.81
2023-04-25T07:24:27.835Z,94810.00
2023-04-25T07:26:57.415Z,94813.16
2023-04-25T07:29:38.173Z,94808.50
2023-04-25T07:32:08.708Z,94811.09
2023-04-25T07:34:38.351Z,94816.34
2023-04-25T07:37:06.503Z,94819.31
2023-04-25T07:39:42.987Z,94811.88
2023-04-25T07:42:11.278Z,94823.72
2023-04-25T07:44:43.384Z,94819.59
2023-04-25T07:47:15.267Z,94822.31
2023-04-25T07:49:43.949Z,94827.41
2023-04-25T07:52:11.842Z,94829.31
2023-04-25T07:54:49.546Z,94837.72
2023-04-25T07:57:22.736Z,94840.22
2023-04-25T07:59:51.804Z,94840.09
2023-04-25T08:02:21.652Z,94847.56
2023-04-25T08:04:50.839Z,94838.72
2023-04-25T08:07:19.673Z,94838.84
2023-04-25T08:09:52.251Z,94848.38
2023-04-25T08:12:34.345Z,94861.41
2023-04-25T08:15:02.837Z,94854.91
2023-04-25T08:17:36.748Z,94850.59
2023-04-25T08:20:06.876Z,94860.25
2023-04-25T08:22:35.284Z,94860.47
2023-04-25T08:25:20.864Z,94865.72
2023-04-25T08:27:50.149Z,94866.16
2023-04-25T08:30:20.722Z,94873.44
2023-04-25T08:32:50.129Z,94868.78
2023-04-25T08:35:42.390Z,94875.91
2023-04-25T08:38:10.448Z,94873.66
2023-04-25T08:40:41.793Z,94873.44
2023-04-25T08:43:16.093Z,94887.03
2023-04-25T08:45:44.695Z,94889.94
2023-04-25T08:48:20.386Z,94894.66
2023-04-25T08:50:52.880Z,94900.75
2023-04-25T08:53:28.620Z,94900.81
2023-04-25T08:56:02.705Z,94912.59
2023-04-25T08:58:35.701Z,94912.28
2023-04-25T09:01:05.787Z,94916.06
2023-04-25T09:03:42.222Z,94915.94
2023-04-25T09:06:12.558Z,94910.53
2023-04-25T09:08:41.168Z,94913.09
2023-04-25T09:11:09.484Z,94919.53
2023-04-25T09:13:38.326Z,94922.72
2023-04-25T09:16:23.949Z,94908.13
2023-04-25T09:19:37.477Z,94921.00
2023-04-25T09:22:13.092Z,94923.44
2023-04-25T09:24:44.375Z,94929.06
2023-04-25T09:27:13.971Z,94939.03
2023-04-25T09:29:43.324Z,94921.75
2023-04-25T09:32:21.233Z,94934.94
2023-04-25T09:34:55.306Z,94931.63
2023-04-25T09:37:25.468Z,94927.88
2023-04-25T09:40:16.655Z,94922.53
2023-04-25T09:43:01.572Z,94926.25
2023-04-25T09:45:32.372Z,94922.59
2023-04-25T09:48:07.123Z,94925.94
2023-04-25T09:50:40.547Z,94924.38
2023-04-25T09:53:12.870Z,94919.00
2023-04-25T09:56:11.224Z,94915.81
2023-04-25T09:58:40.748Z,94916.19
2023-04-25T10:01:10.797Z,94916.03
2023-04-25T10:03:52.465Z,94917.38
2023-04-25T10:06:44.021Z,94914.78
2023-04-25T10:09:13.726Z,94913.63
2023-04-25T10:11:42.733Z,94914.72
2023-04-25T10:14:11.555Z,94918.25
2023-04-25T10:16:40.837Z,94911.25
2023-04-25T10:19:09.370Z,94906.91
2023-04-25T10:21:43.236Z,94907.72
2023-04-25T10:24:13.180Z,94905.03
2023-04-25T10:26:41.335Z,94894.06
2023-04-25T10:29:09.304Z,94901.47
2023-04-25T10:31:47.384Z,94904.13
2023-04-25T10:34:15.492Z,94916.09
2023-04-25T10:36:43.732Z,94904.00
2023-04-25T10:39:13.207Z,94910.84
2023-04-25T10:41:54.960Z,94903.50
2023-04-25T10:44:23.006Z,94908.75
2023-04-25T10:46:50.965Z,94915.69
2023-04-25T10:49:33.180Z,94907.59
2023-04-25T10:52:21.469Z,94911.88
2023-04-25T10:54:53.860Z,94916.19
2023-04-25T10:57:38.556Z,94908.09
2023-04-25T11:00:16.137Z,94914.13
2023-04-25T11:02:46.418Z,94913.66
2023-04-25T11:05:24.686Z,94906.78
2023-04-25T11:08:04.049Z,94904.69
2023-04-25T11:10:37.456Z,94917.28
2023-04-25T11:13:05.883Z,94913.63
2023-04-25T11:15:33.876Z,94918.47
2023-04-25T11:18:02.351Z,94924.06
2023-04-25T11:20:31.898Z,94918.50
2023-04-25T11:23:01.082Z,94926.75
2023-04-25T11:25:29.090Z,94920.06
2023-04-25T11:28:01.556Z,94907.19
2023-04-25T11:30:31.728Z,94903.66
2023-04-25T11:33:00.188Z,94906.19
2023-04-25T11:35:28.145Z,94903.59
2023-04-25T11:37:56.143Z,94911.69
2023-04-25T11:40:24.103Z,94907.81
2023-04-25T11:42:52.543Z,94910.03
2023-04-25T11:45:25.265Z,94901.53
2023-04-25T11:47:54.083Z,94906.34
2023-04-25T11:50:22.309Z,94916.75
2023-04-25T11:52:51.262Z,94911.69
2023-04-25T11:55:21.005Z,94910.84
2023-04-25T11:57:51.189Z,94906.88
2023-04-25T12:00:21.393Z,94921.97
2023-04-25T12:02:54.403Z,94901.34
2023-04-25T12:07:56.689Z,94920.88
2023-04-25T12:10:27.343Z,94907.69
2023-04-25T12:12:55.937Z,94914.91
2023-04-25T12:15:27.363Z,94907.38
2023-04-25T12:17:56.901Z,94918.56
2023-04-25T12:20:27.274Z,94919.59
2023-04-25T12:22:56.643Z,94907.66
2023-04-25T12:25:37.704Z,94911.47
2023-04-25T12:28:16.084Z,94926.53
2023-04-25T12:31:01.813Z,94917.78
2023-04-25T12:33:32.947Z,94920.41
2023-04-25T12:36:06.294Z,94930.25
2023-04-25T12:38:38.649Z,94922.41
2023-04-25T12:41:06.874Z,94916.13
2023-04-25T12:43:35.129Z,94916.50
2023-04-25T12:46:03.482Z,94924.41
2023-04-25T12:48:32.761Z,94920.66
2023-04-25T12:51:00.686Z,94923.50
2023-04-25T12:53:28.614Z,94920.56
2023-04-25T12:55:57.080Z,94916.75
2023-04-25T12:58:25.955Z,94926.06
2023-04-25T13:00:54.047Z,94922.69
2023-04-25T13:03:22.987Z,94913.72
2023-04-25T13:05:53.675Z,94912.66
2023-04-25T13:08:21.767Z,94911.31
2023-04-25T13:10:49.728Z,94920.25
2023-04-25T13:13:18.128Z,94914.38
2023-04-25T13:15:46.073Z,94922.66
2023-04-25T13:18:13.986Z,94904.34
2023-04-25T13:20:42.037Z,94908.94
2023-04-25T13:23:11.483Z,94910.91
2023-04-25T13:25:39.439Z,94916.69
2023-04-25T13:28:07.309Z,94908.34
2023-04-25T13:30:35.386Z,94905.00
2023-04-25T13:33:04.438Z,94902.72
2023-04-25T13:35:33.138Z,94902.38
2023-04-25T13:38:01.776Z,94905.81
2023-04-25T13:40:31.594Z,94896.75
2023-04-25T13:43:00.186Z,94894.19
2023-04-25T13:45:28.111Z,94904.75
2023-04-25T13:47:56.203Z,94887.56
2023-04-25T13:50:24.154Z,94889.53
2023-04-25T13:52:52.517Z,94894.56
2023-04-25T13:55:20.644Z,94897.25
2023-04-25T13:57:49.939Z,94903.34
2023-04-25T14:00:18.744Z,94888.91
2023-04-25T14:02:48.161Z,94889.56
2023-04-25T14:05:18.021Z,94893.84
2023-04-25T14:07:46.387Z,94892.47
2023-04-25T14:10:14.277Z,94893.38
2023-04-25T14:12:42.207Z,94889.66
2023-04-25T14:15:12.826Z,94899.09
2023-04-25T14:17:41.219Z,94896.13
2023-04-25T14:20:11.986Z,94893.06
2023-04-25T14:22:43.994Z,94888.94
2023-04-25T14:25:12.122Z,94887.06
2023-04-25T14:27:40.034Z,94880.66
2023-04-25T14:30:10.233Z,94883.72
2023-04-25T14:32:40.198Z,94876.47
2023-04-25T14:35:09.064Z,94879.97
2023-04-25T14:37:37.007Z,94886.88
2023-04-25T14:40:05.605Z,94888.59
2023-04-25T14:42:35.151Z,94878.78
2023-04-25T14:45:03.349Z,94882.44
2023-04-25T14:47:31.334Z,94890.56
2023-04-25T14:50:00.767Z,94887.13
2023-04-25T14:52:28.935Z,94883.72
2023-04-25T14:54:56.907Z,94889.75
2023-04-25T14:57:24.874Z,94898.59
2023-04-25T14:59:52.791Z,94890.56
2023-04-25T15:02:20.765Z,94888.00
2023-04-25T15:04:48.825Z,94889.09
2023-04-25T15:07:18.657Z,94888.50
2023-04-25T15:09:46.739Z,94884.16
2023-04-25T15:12:14.685Z,94888.50
2023-04-25T15:14:42.629Z,94890.13
2023-04-25T15:17:10.676Z,94882.22
2023-04-25T15:19:38.646Z,94883.25
2023-04-25T15:22:07.799Z,94879.59
2023-04-25T15:24:37.275Z,94880.16
2023-04-25T15:27:05.479Z,94884.34
2023-04-25T15:29:33.380Z,94874.78
2023-04-25T15:32:01.294Z,94872.59
2023-04-25T15:34:29.276Z,94867.53
2023-04-25T15:36:58.569Z,94869.41
2023-04-25T15:39:26.494Z,94869.84
2023-04-25T15:41:56.163Z,94865.38
2023-04-25T15:44:24.069Z,94875.13
2023-04-25T15:46:53.845Z,94883.28
2023-04-25T15:49:23.094Z,94883.28
2023-04-25T15:51:51.481Z,94884.06
2023-04-25T15:54:19.753Z,94876.34
2023-04-25T15:56:47.664Z,94883.31
2023-04-25T15:59:16.926Z,94886.97
2023-04-25T16:01:45.075Z,94882.75
2023-04-25T16:04:13.312Z,94878.03
2023-04-25T16:06:42.500Z,94889.44
2023-04-25T16:09:10.384Z,94883.78
2023-04-25T16:11:38.318Z,94899.09
2023-04-25T16:14:06.541Z,94890.44
2023-04-25T16:16:35.925Z,94887.78
2023-04-25T16:19:03.936Z,94892.78
2023-04-25T16:21:32.130Z,94898.56
2023-04-25T16:24:00.209Z,94903.53
2023-04-25T16:26:28.074Z,94891.13
2023-04-25T16:28:55.990Z,94895.91
2023-04-25T16:31:23.949Z,94895.94
2023-04-25T16:33:53.491Z,94901.47
2023-04-25T16:36:21.611Z,94894.84
2023-04-25T16:38:49.708Z,94898.56
2023-04-25T16:41:18.664Z,94902.31
2023-04-25T16:43:46.673Z,94901.22
2023-04-25T16:46:14.595Z,94896.16
2023-04-25T16:48:42.490Z,94910.19
2023-04-25T16:51:11.832Z,94910.13
2023-04-25T16:53:39.727Z,94912.25
2023-04-25T16:56:08.394Z,94910.16
2023-04-25T16:58:36.703Z,94915.91
2023-04-25T17:01:05.215Z,94912.75
2023-04-25T17:03:35.301Z,94913.56
2023-04-25T17:06:04.049Z,94922.28
2023-04-25T17:08:33.320Z,94916.47
2023-04-25T17:11:01.243Z,94913.06
2023-04-25T17:13:31.625Z,94918.09
2023-04-25T17:15:59.811Z,94918.34
2023-04-25T17:18:28.195Z,94930.19
2023-04-25T17:20:56.402Z,94920.13
2023-04-25T17:23:24.341Z,94926.97
2023-04-25T17:25:53.666Z,94920.69
2023-04-25T17:28:21.579Z,94917.56
2023-04-25T17:30:49.556Z,94925.91
2023-04-25T17:33:17.479Z,94923.25
2023-04-25T17:35:45.426Z,94923.06
2023-04-25T17:38:14.826Z,94919.94
2023-04-25T17:40:43.166Z,94928.13
2023-04-25T17:43:12.450Z,94927.56
2023-04-25T17:45:40.617Z,94934.66
2023-04-25T17:48:08.558Z,94937.53
2023-04-25T17:50:36.530Z,94936.41
2023-04-25T17:53:04.978Z,94931.16
2023-04-25T17:55:32.914Z,94931.72
2023-04-25T17:58:00.828Z,94932.84
2023-04-25T18:00:31.650Z,94938.63
2023-04-25T18:02:59.644Z,94940.44
2023-04-25T18:05:29.248Z,94934.94
2023-04-25T18:07:59.126Z,94942.84
2023-04-25T18:10:27.078Z,94938.09
2023-04-25T18:12:54.981Z,94943.09
2023-04-25T18:15:23.198Z,94943.34
2023-04-25T18:17:52.633Z,94940.09
2023-04-25T18:20:22.226Z,94943.91
2023-04-25T18:22:50.799Z,94938.75
2023-04-25T18:25:18.720Z,94953.56
2023-04-25T18:27:47.425Z,94952.69
2023-04-25T18:30:15.513Z,94952.94
2023-04-25T18:32:43.579Z,94955.59
2023-04-25T18:35:14.314Z,94950.47
2023-04-25T18:37:42.542Z,94953.44
2023-04-25T18:40:14.026Z,94952.22
2023-04-25T18:42:43.102Z,94956.75
2023-04-25T18:45:12.328Z,94961.63
2023-04-25T18:47:40.396Z,94964.34
2023-04-25T18:50:09.385Z,94964.63
2023-04-25T18:52:38.793Z,94965.38
2023-04-25T18:55:07.487Z,94962.09
2023-04-25T18:57:36.061Z,94960.66
2023-04-25T19:00:06.764Z,94963.38
2023-04-25T19:02:36.988Z,94971.34
2023-04-25T19:05:05.590Z,94969.09
2023-04-25T19:07:33.527Z,94970.22
2023-04-25T19:10:05.286Z,94971.72
2023-04-25T19:12:34.510Z,94966.56
2023-04-25T19:15:02.756Z,94969.09
2023-04-25T19:17:30.716Z,94979.09
2023-04-25T19:19:58.680Z,94976.97
2023-04-25T19:22:27.438Z,94980.94
2023-04-25T19:25:03.139Z,94984.19
2023-04-25T19:27:39.197Z,94979.59
2023-04-25T19:30:11.335Z,94982.28
2023-04-25T19:32:40.152Z,94991.34
2023-04-25T19:35:11.637Z,94985.78
2023-04-25T19:37:45.875Z,94985.16
2023-04-25T19:40:15.268Z,94990.06
2023-04-25T19:42:44.692Z,94996.09
2023-04-25T19:45:13.714Z,94989.34
2023-04-25T19:47:42.500Z,94990.38
2023-04-25T19:50:11.146Z,94989.19
2023-04-25T19:52:40.093Z,94998.31
2023-04-25T19:55:09.811Z,94992.38
2023-04-25T19:57:38.285Z,94991.25
2023-04-25T20:00:10.967Z,94989.75
2023-04-25T20:02:43.776Z,94990.47
2023-04-25T20:05:13.293Z,94987.38
2023-04-25T20:07:41.715Z,94989.34
2023-04-25T20:10:12.654Z,94993.16
2023-04-25T20:12:41.188Z,94996.81
2023-04-25T20:15:11.700Z,94994.50
2023-04-25T20:17:40.124Z,94989.53
2023-04-25T20:20:09.987Z,94991.66
2023-04-25T20:22:40.078Z,94996.41
2023-04-25T20:25:10.768Z,94996.59
2023-04-25T20:27:39.091Z,94995.13
2023-04-25T20:30:08.493Z,95006.56
2023-04-25T20:32:38.111Z,95008.00
2023-04-25T20:35:08.796Z,95002.06
2023-04-25T20:37:37.581Z,95001.34
2023-04-25T20:40:07.841Z,95002.09
2023-04-25T20:42:36.295Z,95004.47
2023-04-25T20:45:07.599Z,95007.63
2023-04-25T20:47:37.263Z,95014.00
2023-04-25T20:50:07.321Z,95015.34
2023-04-25T20:52:37.252Z,95010.78
2023-04-25T20:55:05.593Z,95005.09
2023-04-25T20:57:33.632Z,95007.69
2023-04-25T21:00:01.595Z,95010.88
2023-04-25T21:02:31.069Z,95002.78
2023-04-25T21:05:00.433Z,95004.38
2023-04-25T21:07:28.748Z,95000.88
2023-04-25T21:09:56.939Z,94993.59
2023-04-25T21:12:24.834Z,94996.88
2023-04-25T21:14:52.773Z,94997.34
2023-04-25T21:17:20.780Z,95000.44
2023-04-25T21:19:48.765Z,94994.63
2023-04-25T21:22:18.024Z,94998.75
2023-04-25T21:24:47.714Z,95009.31
2023-04-25T21:27:17.365Z,95007.38
2023-04-25T21:29:45.538Z,95016.50
2023-04-25T21:32:16.857Z,95017.84
2023-04-25T21:34:44.787Z,95015.56
2023-04-25T21:37:13.262Z,95017.03
2023-04-25T21:39:42.522Z,95021.91
2023-04-25T21:42:11.127Z,95021.72
2023-04-25T21:44:40.032Z,95018.75
2023-04-25T21:47:07.980Z,95025.13
2023-04-25T21:49:35.953Z,95025.69
2023-04-25T21:52:03.860Z,95025.13
2023-04-25T21:54:31.838Z,95025.13
2023-04-25T21:57:01.158Z,95022.41
2023-04-25T21:59:29.138Z,95036.47
2023-04-25T22:01:57.160Z,95035.34
2023-04-25T22:04:25.434Z,95026.72
2023-04-25T22:06:53.641Z,95031.78
2023-04-25T22:09:21.570Z,95036.22
2023-04-25T22:11:53.193Z,95041.44
2023-04-25T22:14:22.906Z,95039.84
2023-04-25T22:16:51.029Z,95037.13
2023-04-25T22:19:18.929Z,95035.53
2023-04-25T22:21:46.850Z,95030.22
2023-04-25T22:24:15.132Z,95033.91
2023-04-25T22:26:43.923Z,95034.16
2023-04-25T22:29:12.393Z,95037.00
2023-04-25T22:31:41.766Z,95039.03
2023-04-25T22:34:09.692Z,95040.28
2023-04-25T22:36:37.604Z,95034.25
2023-04-25T22:39:05.516Z,95033.13
2023-04-25T22:41:33.385Z,95032.78
2023-04-25T22:44:01.345Z,95038.00
2023-04-25T22:46:29.993Z,95041.06
2023-04-25T22:48:59.335Z,95040.13
2023-04-25T22:51:27.229Z,95038.63
2023-04-25T22:53:56.209Z,95039.06
2023-04-25T22:56:24.733Z,95042.69
2023-04-25T22:58:53.008Z,95045.88
2023-04-25T23:01:21.427Z,95041.25
2023-04-25T23:03:49.552Z,95048.38
2023-04-25T23:06:18.908Z,95045.16
2023-04-25T23:08:46.828Z,95048.78
2023-04-25T23:11:14.755Z,95048.44
2023-04-25T23:13:42.654Z,95047.66
2023-04-25T23:16:11.748Z,95047.19
2023-04-25T23:18:41.067Z,95044.59
2023-04-25T23:21:09.526Z,95046.06
2023-04-25T23:23:39.951Z,95051.28
2023-04-25T23:26:08.736Z,95044.47
2023-04-25T23:28:39.884Z,95053.88
2023-04-25T23:31:11.690Z,95054.44
2023-04-25T23:33:39.927Z,95053.75
2023-04-25T23:36:08.514Z,95052.16
2023-04-25T23:38:38.268Z,95058.41
2023-04-25T23:41:06.219Z,95056.22
2023-04-25T23:43:34.123Z,95065.06
2023-04-25T23:46:02.084Z,95065.47
2023-04-25T23:48:30.348Z,95071.13
2023-04-25T23:51:00.717Z,95077.94
2023-04-25T23:53:28.650Z,95067.66
2023-04-25T23:55:57.936Z,95068.25
2023-04-25T23:58:25.811Z,95067.31
